createdAt,value
2023-04-16T00:01:35.230Z,17.17
2023-04-16T00:04:02.108Z,16.88
2023-04-16T00:06:28.970Z,16.02
2023-04-16T00:08:55.824Z,16.05
2023-04-16T00:11:22.563Z,16.42
2023-04-16T00:13:49.321Z,17.17
2023-04-16T00:16:16.192Z,15.80
2023-04-16T00:18:42.925Z,16.50
2023-04-16T00:21:09.634Z,15.30
2023-04-16T00:23:36.468Z,15.45
2023-04-16T00:26:03.230Z,17.70
2023-04-16T00:28:29.975Z,17.13
2023-04-16T00:30:56.785Z,16.00
2023-04-16T00:33:24.080Z,15.65
2023-04-16T00:35:51.347Z,15.50
2023-04-16T00:38:18.108Z,15.35
2023-04-16T00:40:44.878Z,15.48
2023-04-16T00:43:11.624Z,14.70
2023-04-16T00:45:38.383Z,15.00
2023-04-16T00:48:05.394Z,15.07
2023-04-16T00:50:32.141Z,15.15
2023-04-16T00:52:58.842Z,15.02
2023-04-16T00:55:25.779Z,15.07
2023-04-16T00:57:52.483Z,15.23
2023-04-16T01:00:20.567Z,14.05
2023-04-16T01:02:47.306Z,16.08
2023-04-16T01:05:14.048Z,14.90
2023-04-16T01:07:40.837Z,13.93
2023-04-16T01:10:07.999Z,14.23
2023-04-16T01:12:34.702Z,13.55
2023-04-16T01:15:01.508Z,14.10
2023-04-16T01:17:28.247Z,13.25
2023-04-16T01:19:59.453Z,14.10
2023-04-16T01:22:27.594Z,13.60
2023-04-16T01:24:54.335Z,13.75
2023-04-16T01:27:21.038Z,13.55
2023-04-16T01:29:47.753Z,13.90
2023-04-16T01:32:14.483Z,14.40
2023-04-16T01:34:41.216Z,13.57
2023-04-16T01:37:08.052Z,12.82
2023-04-16T01:39:34.761Z,13.23
2023-04-16T01:42:01.474Z,14.13
2023-04-16T01:44:28.274Z,13.38
2023-04-16T01:46:55.123Z,12.82
2023-04-16T01:49:22.100Z,12.80
2023-04-16T01:51:48.848Z,13.50
2023-04-16T01:54:15.517Z,12.85
2023-04-16T01:56:42.240Z,12.32
2023-04-16T01:59:09.324Z,12.10
2023-04-16T02:01:36.383Z,12.27
2023-04-16T02:04:03.126Z,12.02
2023-04-16T02:06:30.654Z,12.23
2023-04-16T02:08:57.324Z,12.68
2023-04-16T02:11:23.980Z,12.50
2023-04-16T02:13:50.668Z,12.05
2023-04-16T02:16:17.427Z,11.90
2023-04-16T02:18:44.185Z,12.50
2023-04-16T02:21:11.094Z,12.80
2023-04-16T02:23:41.129Z,13.25
2023-04-16T02:26:07.919Z,11.88
2023-04-16T02:28:34.623Z,13.18
2023-04-16T02:31:01.278Z,12.48
2023-04-16T02:33:27.970Z,12.32
2023-04-16T02:35:54.694Z,13.07
2023-04-16T02:38:21.587Z,13.60
2023-04-16T02:40:48.305Z,13.30
2023-04-16T02:43:15.003Z,12.63
2023-04-16T02:45:41.795Z,14.30
2023-04-16T02:48:09.722Z,15.15
2023-04-16T02:50:36.481Z,13.43
2023-04-16T02:53:04.381Z,14.80
2023-04-16T02:55:31.263Z,13.85
2023-04-16T02:57:58.025Z,14.32
2023-04-16T03:00:24.788Z,14.45
2023-04-16T03:02:51.582Z,13.80
2023-04-16T03:05:18.568Z,14.38
2023-04-16T03:07:45.484Z,13.30
2023-04-16T03:10:13.483Z,14.05
2023-04-16T03:12:40.112Z,14.88
2023-04-16T03:15:07.323Z,14.27
2023-04-16T03:17:34.064Z,14.45
2023-04-16T03:20:00.825Z,13.57
2023-04-16T03:22:27.455Z,15.10
2023-04-16T03:24:54.176Z,13.45
2023-04-16T03:27:20.936Z,13.75
2023-04-16T03:29:47.713Z,14.15
2023-04-16T03:32:14.651Z,13.80
2023-04-16T03:34:41.388Z,13.80
2023-04-16T03:37:12.037Z,12.85
2023-04-16T03:39:38.969Z,12.98
2023-04-16T03:42:05.685Z,13.05
2023-04-16T03:44:32.427Z,12.88
2023-04-16T03:46:59.337Z,12.38
2023-04-16T03:49:26.222Z,13.05
2023-04-16T03:51:52.912Z,11.82
2023-04-16T03:54:22.062Z,12.10
2023-04-16T03:56:49.542Z,12.48
2023-04-16T03:59:16.267Z,12.95
2023-04-16T04:01:43.045Z,13.00
2023-04-16T04:04:10.083Z,13.55
2023-04-16T04:06:36.866Z,13.63
2023-04-16T04:09:04.129Z,15.32
2023-04-16T04:11:30.858Z,14.88
2023-04-16T04:13:57.642Z,15.15
2023-04-16T04:16:24.379Z,14.52
2023-04-16T04:18:51.316Z,15.07
2023-04-16T04:21:17.991Z,14.98
2023-04-16T04:23:44.804Z,15.48
2023-04-16T04:26:11.583Z,16.05
2023-04-16T04:28:38.382Z,15.02
2023-04-16T04:31:05.467Z,15.48
2023-04-16T04:33:32.331Z,14.52
2023-04-16T04:35:59.119Z,14.40
2023-04-16T04:38:25.808Z,14.68
2023-04-16T04:40:53.126Z,15.10
2023-04-16T04:43:20.632Z,14.45
2023-04-16T04:45:47.525Z,15.35
2023-04-16T04:48:14.286Z,16.17
2023-04-16T04:50:41.688Z,16.05
2023-04-16T04:53:11.618Z,14.38
2023-04-16T04:55:39.323Z,15.55
2023-04-16T04:58:06.529Z,15.23
2023-04-16T05:00:34.008Z,15.35
2023-04-16T05:03:05.675Z,15.90
2023-04-16T05:05:33.073Z,14.52
2023-04-16T05:07:59.829Z,15.88
2023-04-16T05:10:27.040Z,16.30
2023-04-16T05:12:53.706Z,16.63
2023-04-16T05:15:20.813Z,17.30
2023-04-16T05:17:47.562Z,17.13
2023-04-16T05:20:14.459Z,19.13
2023-04-16T05:22:41.461Z,18.40
2023-04-16T05:25:08.754Z,17.17
2023-04-16T05:27:35.790Z,17.70
2023-04-16T05:30:03.109Z,18.38
2023-04-16T05:32:29.873Z,18.17
2023-04-16T05:34:56.634Z,20.02
2023-04-16T05:37:23.366Z,19.70
2023-04-16T05:39:50.203Z,19.27
2023-04-16T05:42:16.874Z,20.02
2023-04-16T05:44:43.664Z,19.35
2023-04-16T05:47:10.424Z,18.42
2023-04-16T05:49:39.884Z,19.60
2023-04-16T05:52:07.568Z,21.40
2023-04-16T05:54:34.398Z,21.02
2023-04-16T05:57:02.084Z,23.17
2023-04-16T05:59:29.551Z,22.80
2023-04-16T06:01:56.430Z,23.52
2023-04-16T06:04:23.334Z,24.80
2023-04-16T06:06:50.240Z,25.17
2023-04-16T06:09:17.014Z,25.33
2023-04-16T06:11:43.666Z,25.02
2023-04-16T06:14:11.003Z,24.08
2023-04-16T06:16:37.646Z,25.88
2023-04-16T06:19:04.392Z,23.85
2023-04-16T06:21:31.822Z,25.27
2023-04-16T06:23:58.639Z,26.15
2023-04-16T06:26:25.890Z,24.98
2023-04-16T06:28:52.590Z,24.85
2023-04-16T06:31:19.250Z,24.92
2023-04-16T06:33:46.096Z,23.70
2023-04-16T06:36:12.819Z,23.30
2023-04-16T06:38:39.539Z,21.05
2023-04-16T06:41:06.246Z,23.08
2023-04-16T06:43:33.890Z,22.98
2023-04-16T06:46:00.676Z,24.25
2023-04-16T06:48:27.642Z,23.88
2023-04-16T06:50:55.300Z,22.65
2023-04-16T06:53:22.172Z,22.88
2023-04-16T06:55:48.791Z,23.88
2023-04-16T06:58:15.700Z,23.70
2023-04-16T07:00:42.397Z,22.75
2023-04-16T07:03:09.265Z,23.23
2023-04-16T07:05:36.176Z,23.83
2023-04-16T07:08:02.839Z,22.15
2023-04-16T07:10:29.603Z,22.42
2023-04-16T07:12:56.254Z,25.73
2023-04-16T07:15:22.933Z,24.40
2023-04-16T07:17:49.590Z,29.73
2023-04-16T07:20:16.394Z,28.23
2023-04-16T07:22:43.545Z,23.98
2023-04-16T07:25:10.433Z,23.73
2023-04-16T07:27:37.049Z,22.52
2023-04-16T07:30:04.092Z,22.98
2023-04-16T07:32:30.973Z,22.55
2023-04-16T07:34:58.014Z,22.75
2023-04-16T07:37:24.657Z,22.42
2023-04-16T07:39:52.128Z,21.98
2023-04-16T07:42:18.771Z,20.20
2023-04-16T07:44:45.484Z,21.35
2023-04-16T07:47:12.102Z,20.25
2023-04-16T07:49:38.940Z,20.52
2023-04-16T07:52:06.006Z,20.95
2023-04-16T07:54:32.686Z,21.08
2023-04-16T07:56:59.397Z,22.30
2023-04-16T07:59:26.395Z,20.35
2023-04-16T08:01:54.148Z,20.73
2023-04-16T08:04:25.540Z,22.30
2023-04-16T08:06:53.089Z,23.23
2023-04-16T08:09:21.765Z,24.00
2023-04-16T08:11:49.974Z,23.00
2023-04-16T08:14:17.636Z,22.25
2023-04-16T08:16:44.573Z,21.63
2023-04-16T08:19:11.444Z,21.58
2023-04-16T08:21:38.283Z,21.33
2023-04-16T08:24:05.041Z,20.88
2023-04-16T08:26:31.682Z,21.15
2023-04-16T08:28:58.418Z,19.88
2023-04-16T08:31:25.147Z,17.38
2023-04-16T08:33:51.819Z,15.05
2023-04-16T08:36:18.515Z,17.45
2023-04-16T08:38:45.277Z,15.88
2023-04-16T08:41:13.080Z,15.27
2023-04-16T08:43:44.546Z,16.13
2023-04-16T08:46:12.388Z,16.27
2023-04-16T08:48:39.283Z,16.50
2023-04-16T08:51:06.127Z,16.42
2023-04-16T08:53:39.883Z,15.07
2023-04-16T08:56:06.719Z,15.23
2023-04-16T08:58:35.864Z,15.63
2023-04-16T09:01:05.724Z,14.85
2023-04-16T09:03:35.656Z,15.00
2023-04-16T09:06:03.542Z,15.95
2023-04-16T09:08:30.553Z,16.08
2023-04-16T09:10:57.425Z,18.85
2023-04-16T09:13:25.694Z,20.55
2023-04-16T09:15:53.696Z,19.10
2023-04-16T09:18:21.488Z,20.92
2023-04-16T09:20:50.047Z,16.80
2023-04-16T09:23:17.155Z,15.95
2023-04-16T09:25:44.093Z,16.52
2023-04-16T09:28:11.118Z,14.45
2023-04-16T09:30:38.905Z,17.98
2023-04-16T09:33:22.921Z,15.57
2023-04-16T09:35:51.486Z,17.65
2023-04-16T09:38:19.037Z,16.70
2023-04-16T09:40:49.616Z,17.80
2023-04-16T09:43:19.008Z,17.77
2023-04-16T09:45:52.700Z,16.70
2023-04-16T09:48:32.750Z,15.95
2023-04-16T09:51:00.711Z,18.17
2023-04-16T09:53:31.689Z,17.25
2023-04-16T09:55:58.732Z,16.58
2023-04-16T09:58:26.110Z,17.98
2023-04-16T10:01:05.919Z,16.73
2023-04-16T10:03:34.167Z,15.88
2023-04-16T10:06:07.406Z,15.07
2023-04-16T10:08:34.093Z,16.52
2023-04-16T10:11:01.066Z,17.77
2023-04-16T10:13:28.396Z,17.60
2023-04-16T10:15:56.464Z,18.08
2023-04-16T10:18:23.331Z,19.05
2023-04-16T10:20:50.817Z,18.90
2023-04-16T10:23:17.548Z,19.13
2023-04-16T10:25:45.144Z,19.88
2023-04-16T10:28:11.786Z,19.63
2023-04-16T10:30:38.601Z,16.80
2023-04-16T10:33:05.395Z,18.35
2023-04-16T10:35:32.340Z,24.10
2023-04-16T10:38:27.960Z,24.02
2023-04-16T10:41:05.213Z,17.98
2023-04-16T10:43:34.574Z,18.58
2023-04-16T10:46:40.772Z,17.75
2023-04-16T10:49:22.929Z,17.00
2023-04-16T10:52:08.114Z,16.30
2023-04-16T10:54:36.258Z,15.60
2023-04-16T10:57:10.662Z,16.13
2023-04-16T10:59:38.574Z,13.82
2023-04-16T11:02:11.858Z,14.75
2023-04-16T11:04:39.989Z,16.23
2023-04-16T11:07:15.442Z,13.55
2023-04-16T11:09:51.387Z,13.77
2023-04-16T11:12:19.056Z,12.90
2023-04-16T11:14:54.210Z,12.32
2023-04-16T11:17:21.627Z,13.23
2023-04-16T11:19:48.353Z,12.27
2023-04-16T11:22:17.384Z,11.02
2023-04-16T11:24:47.627Z,11.73
2023-04-16T11:27:15.350Z,11.45
2023-04-16T11:29:45.042Z,11.60
2023-04-16T11:32:21.813Z,12.27
2023-04-16T11:34:49.282Z,12.55
2023-04-16T11:37:16.268Z,10.95
2023-04-16T11:39:52.689Z,11.23
2023-04-16T11:42:23.107Z,11.75
2023-04-16T11:44:56.223Z,9.07
2023-04-16T11:47:24.095Z,9.50
2023-04-16T11:49:51.348Z,11.10
2023-04-16T11:52:33.883Z,10.02
2023-04-16T11:55:00.612Z,10.30
2023-04-16T11:57:31.651Z,9.30
2023-04-16T12:00:02.851Z,9.68
2023-04-16T12:02:43.502Z,9.45
2023-04-16T12:05:40.371Z,8.15
2023-04-16T12:08:11.928Z,8.75
2023-04-16T12:10:54.248Z,8.88
2023-04-16T12:13:21.154Z,7.80
2023-04-16T12:15:49.226Z,8.45
2023-04-16T12:18:17.527Z,7.70
2023-04-16T12:20:44.989Z,8.07
2023-04-16T12:23:25.378Z,7.13
2023-04-16T12:25:52.710Z,7.50
2023-04-16T12:28:32.044Z,8.15
2023-04-16T12:30:58.974Z,8.07
2023-04-16T12:33:26.074Z,7.50
2023-04-16T12:35:52.824Z,7.63
2023-04-16T12:38:20.451Z,7.13
2023-04-16T12:40:48.522Z,5.80
2023-04-16T12:43:15.734Z,6.53
2023-04-16T12:45:42.670Z,6.40
2023-04-16T12:48:11.014Z,6.55
2023-04-16T12:50:39.757Z,6.57
2023-04-16T12:53:06.531Z,5.88
2023-04-16T12:55:33.319Z,5.78
2023-04-16T12:57:59.980Z,6.47
2023-04-16T13:00:26.954Z,7.05
2023-04-16T13:02:53.839Z,6.65
2023-04-16T13:05:21.221Z,6.50
2023-04-16T13:07:47.967Z,6.57
2023-04-16T13:10:14.680Z,7.40
2023-04-16T13:12:41.346Z,7.18
2023-04-16T13:15:08.706Z,6.88
2023-04-16T13:17:35.479Z,6.70
2023-04-16T13:20:02.337Z,6.93
2023-04-16T13:22:29.037Z,6.82
2023-04-16T13:24:55.765Z,7.85
2023-04-16T13:27:22.498Z,6.38
2023-04-16T13:29:49.302Z,7.47
2023-04-16T13:32:16.183Z,9.48
2023-04-16T13:34:43.001Z,8.48
2023-04-16T13:37:09.738Z,8.07
2023-04-16T13:39:36.761Z,7.90
2023-04-16T13:42:03.473Z,7.55
2023-04-16T13:44:30.145Z,8.50
2023-04-16T13:46:56.894Z,8.85
2023-04-16T13:49:23.736Z,7.75
2023-04-16T13:51:50.691Z,9.00
2023-04-16T13:54:17.397Z,9.65
2023-04-16T13:56:44.132Z,8.73
2023-04-16T13:59:11.342Z,9.85
2023-04-16T14:01:38.418Z,10.35
2023-04-16T14:04:06.757Z,8.55
2023-04-16T14:06:34.791Z,10.52
2023-04-16T14:09:01.984Z,9.00
2023-04-16T14:11:28.904Z,9.32
2023-04-16T14:13:56.698Z,9.15
2023-04-16T14:16:23.562Z,10.10
2023-04-16T14:18:52.115Z,9.50
2023-04-16T14:21:19.162Z,9.40
2023-04-16T14:23:46.029Z,10.23
2023-04-16T14:26:12.731Z,11.07
2023-04-16T14:28:40.938Z,10.07
2023-04-16T14:31:07.722Z,9.48
2023-04-16T14:33:34.406Z,9.52
2023-04-16T14:36:02.993Z,9.85
2023-04-16T14:38:30.648Z,9.60
2023-04-16T14:40:57.366Z,9.80
2023-04-16T14:43:24.047Z,11.80
2023-04-16T14:45:51.414Z,12.15
2023-04-16T14:48:18.253Z,11.25
2023-04-16T14:50:45.094Z,11.85
2023-04-16T14:53:12.125Z,11.68
2023-04-16T14:55:38.880Z,11.65
2023-04-16T14:58:05.684Z,11.75
2023-04-16T15:00:35.686Z,12.75
2023-04-16T15:03:02.787Z,13.57
2023-04-16T15:05:30.332Z,13.32
2023-04-16T15:07:57.164Z,14.45
2023-04-16T15:10:24.017Z,16.42
2023-04-16T15:12:51.140Z,15.15
2023-04-16T15:15:18.072Z,15.07
2023-04-16T15:17:44.849Z,15.30
2023-04-16T15:20:12.591Z,15.00
2023-04-16T15:22:49.693Z,15.43
2023-04-16T15:25:16.658Z,15.63
2023-04-16T15:27:43.411Z,15.73
2023-04-16T15:30:11.008Z,17.77
2023-04-16T15:32:38.032Z,15.77
2023-04-16T15:35:07.052Z,16.23
2023-04-16T15:37:34.786Z,16.75
2023-04-16T15:40:01.664Z,17.05
2023-04-16T15:42:28.567Z,16.58
2023-04-16T15:44:55.320Z,16.75
2023-04-16T15:47:22.146Z,16.75
2023-04-16T15:49:49.076Z,17.40
2023-04-16T15:52:15.991Z,18.13
2023-04-16T15:54:43.343Z,17.20
2023-04-16T15:57:10.264Z,18.25
2023-04-16T15:59:37.411Z,18.58
2023-04-16T16:02:04.492Z,19.05
2023-04-16T16:04:31.293Z,17.33
2023-04-16T16:06:58.475Z,19.05
2023-04-16T16:09:28.184Z,18.35
2023-04-16T16:11:55.801Z,19.38
2023-04-16T16:14:22.788Z,18.92
2023-04-16T16:16:49.716Z,18.52
2023-04-16T16:19:16.765Z,19.58
2023-04-16T16:21:43.587Z,19.60
2023-04-16T16:24:10.428Z,19.98
2023-04-16T16:26:37.755Z,19.55
2023-04-16T16:29:04.810Z,18.58
2023-04-16T16:31:31.549Z,18.77
2023-04-16T16:33:58.416Z,21.00
2023-04-16T16:36:25.074Z,19.90
2023-04-16T16:38:51.792Z,20.67
2023-04-16T16:41:18.537Z,22.08
2023-04-16T16:43:45.212Z,20.70
2023-04-16T16:46:11.966Z,20.98
2023-04-16T16:48:38.663Z,20.90
2023-04-16T16:51:09.748Z,20.92
2023-04-16T16:53:36.508Z,20.13
2023-04-16T16:56:03.252Z,20.45
2023-04-16T16:58:29.943Z,18.88
2023-04-16T17:00:56.901Z,18.67
2023-04-16T17:03:23.791Z,19.77
2023-04-16T17:05:50.710Z,17.70
2023-04-16T17:08:17.403Z,18.92
2023-04-16T17:10:44.121Z,18.25
2023-04-16T17:13:11.552Z,20.00
2023-04-16T17:15:39.521Z,19.60
2023-04-16T17:18:06.329Z,18.85
2023-04-16T17:20:34.140Z,19.55
2023-04-16T17:23:00.947Z,19.45
2023-04-16T17:25:27.706Z,20.95
2023-04-16T17:27:54.351Z,20.88
2023-04-16T17:30:23.898Z,22.33
2023-04-16T17:32:50.774Z,19.92
2023-04-16T17:35:17.604Z,20.90
2023-04-16T17:37:44.289Z,23.30
2023-04-16T17:40:12.763Z,23.10
2023-04-16T17:42:39.524Z,23.83
2023-04-16T17:45:06.897Z,22.80
2023-04-16T17:47:37.014Z,22.50
2023-04-16T17:50:04.755Z,22.13
2023-04-16T17:52:44.736Z,25.98
2023-04-16T17:55:11.799Z,22.58
2023-04-16T17:57:38.455Z,22.52
2023-04-16T18:00:12.669Z,21.50
2023-04-16T18:02:41.035Z,20.98
2023-04-16T18:05:08.418Z,21.58
2023-04-16T18:07:35.690Z,22.98
2023-04-16T18:10:02.439Z,22.83
2023-04-16T18:12:29.101Z,22.77
2023-04-16T18:14:55.845Z,23.58
2023-04-16T18:17:23.201Z,23.02
2023-04-16T18:19:49.899Z,22.90
2023-04-16T18:22:16.816Z,23.95
2023-04-16T18:24:43.475Z,22.52
2023-04-16T18:27:10.126Z,23.52
2023-04-16T18:29:38.831Z,24.10
2023-04-16T18:32:06.787Z,24.33
2023-04-16T18:34:33.578Z,23.83
2023-04-16T18:37:00.832Z,23.13
2023-04-16T18:39:27.547Z,22.88
2023-04-16T18:41:54.202Z,23.42
2023-04-16T18:44:21.020Z,22.80
2023-04-16T18:46:48.584Z,22.63
2023-04-16T18:49:15.548Z,22.88
2023-04-16T18:51:42.367Z,23.17
2023-04-16T18:54:09.534Z,21.88
2023-04-16T18:56:36.297Z,22.65
2023-04-16T18:59:03.054Z,21.38
2023-04-16T19:01:29.831Z,26.08
2023-04-16T19:03:56.747Z,24.55
2023-04-16T19:06:23.522Z,24.35
2023-04-16T19:08:50.204Z,24.15
2023-04-16T19:11:16.880Z,25.65
2023-04-16T19:13:43.640Z,23.48
2023-04-16T19:16:12.335Z,24.15
2023-04-16T19:18:39.390Z,22.80
2023-04-16T19:21:07.300Z,22.65
2023-04-16T19:23:34.148Z,23.98
2023-04-16T19:26:01.783Z,22.17
2023-04-16T19:28:28.598Z,22.48
2023-04-16T19:30:55.379Z,22.55
2023-04-16T19:33:22.060Z,23.42
2023-04-16T19:35:49.087Z,23.65
2023-04-16T19:38:15.797Z,23.40
2023-04-16T19:40:49.009Z,23.17
2023-04-16T19:43:15.744Z,24.40
2023-04-16T19:45:54.987Z,24.52
2023-04-16T19:48:21.914Z,23.45
2023-04-16T19:50:48.894Z,23.38
2023-04-16T19:53:18.841Z,23.42
2023-04-16T19:55:45.639Z,24.75
2023-04-16T19:58:12.699Z,23.63
2023-04-16T20:00:42.749Z,23.17
2023-04-16T20:03:09.911Z,22.75
2023-04-16T20:05:36.716Z,22.55
2023-04-16T20:08:03.908Z,21.63
2023-04-16T20:10:31.598Z,21.50
2023-04-16T20:13:01.952Z,21.60
2023-04-16T20:15:31.388Z,21.52
2023-04-16T20:17:58.406Z,21.98
2023-04-16T20:20:25.811Z,22.55
2023-04-16T20:22:54.666Z,20.48
2023-04-16T20:25:21.857Z,20.23
2023-04-16T20:27:48.646Z,19.13
2023-04-16T20:30:15.992Z,21.38
2023-04-16T20:32:42.873Z,20.02
2023-04-16T20:35:11.635Z,20.15
2023-04-16T20:37:38.775Z,19.95
2023-04-16T20:40:08.408Z,19.60
2023-04-16T20:42:35.457Z,19.95
2023-04-16T20:45:02.304Z,19.45
2023-04-16T20:47:28.990Z,19.50
2023-04-16T20:49:55.676Z,18.50
2023-04-16T20:52:22.309Z,18.40
2023-04-16T20:54:52.049Z,18.48
2023-04-16T20:57:19.075Z,16.83
2023-04-16T20:59:45.795Z,17.83
2023-04-16T21:02:12.536Z,17.25
2023-04-16T21:04:39.790Z,16.48
2023-04-16T21:07:06.792Z,16.75
2023-04-16T21:09:33.474Z,16.83
2023-04-16T21:12:00.210Z,15.82
2023-04-16T21:14:27.369Z,16.88
2023-04-16T21:16:54.923Z,17.15
2023-04-16T21:19:22.620Z,16.38
2023-04-16T21:21:49.572Z,16.90
2023-04-16T21:24:16.428Z,17.95
2023-04-16T21:26:43.357Z,16.63
2023-04-16T21:29:10.323Z,17.27
2023-04-16T21:31:37.189Z,16.27
2023-04-16T21:34:06.788Z,17.20
2023-04-16T21:36:34.159Z,17.70
2023-04-16T21:39:00.958Z,17.02
2023-04-16T21:41:28.016Z,17.58
2023-04-16T21:43:54.823Z,19.30
2023-04-16T21:46:21.571Z,18.58
2023-04-16T21:48:48.638Z,17.60
2023-04-16T21:51:15.847Z,16.10
2023-04-16T21:53:42.562Z,17.83
2023-04-16T21:56:09.320Z,18.92
2023-04-16T21:58:36.050Z,17.63
2023-04-16T22:01:02.755Z,17.13
2023-04-16T22:03:31.074Z,17.83
2023-04-16T22:06:01.727Z,16.60
2023-04-16T22:08:29.637Z,17.85
2023-04-16T22:11:00.185Z,18.70
2023-04-16T22:13:28.050Z,17.80
2023-04-16T22:15:54.992Z,18.13
2023-04-16T22:18:24.373Z,19.35
2023-04-16T22:20:54.762Z,17.92
2023-04-16T22:23:23.236Z,17.42
2023-04-16T22:25:49.878Z,17.13
2023-04-16T22:28:16.610Z,17.20
2023-04-16T22:30:43.246Z,17.15
2023-04-16T22:33:10.082Z,18.30
2023-04-16T22:35:36.790Z,18.30
2023-04-16T22:38:03.502Z,18.33
2023-04-16T22:40:33.370Z,17.75
2023-04-16T22:43:00.116Z,17.92
2023-04-16T22:45:27.398Z,17.77
2023-04-16T22:47:54.278Z,17.65
2023-04-16T22:50:21.087Z,16.77
2023-04-16T22:52:47.778Z,18.13
2023-04-16T22:55:14.458Z,18.85
2023-04-16T22:57:41.456Z,17.15
2023-04-16T23:00:15.639Z,17.15
2023-04-16T23:02:42.674Z,18.27
2023-04-16T23:05:09.613Z,18.15
2023-04-16T23:07:36.262Z,16.90
2023-04-16T23:10:03.251Z,18.40
2023-04-16T23:12:29.906Z,18.50
2023-04-16T23:14:57.056Z,16.85
2023-04-16T23:17:23.727Z,17.08
2023-04-16T23:19:50.502Z,17.27
2023-04-16T23:22:17.253Z,16.83
2023-04-16T23:24:43.906Z,16.48
2023-04-16T23:27:11.039Z,16.48
2023-04-16T23:29:38.193Z,16.98
2023-04-16T23:32:05.005Z,17.70
2023-04-16T23:34:31.670Z,16.73
2023-04-16T23:36:58.313Z,17.73
2023-04-16T23:39:25.049Z,16.42
2023-04-16T23:41:51.783Z,17.00
2023-04-16T23:44:18.452Z,16.20
2023-04-16T23:46:45.191Z,17.77
2023-04-16T23:49:12.140Z,16.98
2023-04-16T23:51:38.880Z,17.83
2023-04-16T23:54:05.582Z,17.17
2023-04-16T23:56:32.444Z,17.10
2023-04-16T23:58:59.306Z,16.85
